Time;durP1;ratioP1;P1;durP2;ratioP2;P2;SDS_P1;SDS_P2;PMS_P1;PMS_P2;Temp;Humidity;BMP_temperature;BMP_pressure;BME280_temperature;BME280_humidity;BME280_pressure;Samples;Min_cycle;Max_cycle;Signal;HPM_P1;HPM_P2
2023/05/23 00:01:15;;;;;;;23.90;21.43;;;17.90;99.90;;;;;;5015408;28;20595;-64
2023/05/23 00:03:41;;;;;;;26.20;23.50;;;17.90;99.90;;;;;;5015561;28;20578;-64
2023/05/23 00:06:07;;;;;;;31.13;26.70;;;17.90;99.90;;;;;;5015394;28;20418;-64
2023/05/23 00:08:33;;;;;;;28.70;25.70;;;17.70;99.90;;;;;;5015072;28;20213;-64
2023/05/23 00:10:58;;;;;;;30.97;27.43;;;17.80;99.90;;;;;;5015251;28;20511;-64
2023/05/23 00:13:24;;;;;;;30.13;25.43;;;17.90;99.90;;;;;;5015473;28;20210;-64
2023/05/23 00:15:49;;;;;;;33.37;26.77;;;17.90;99.90;;;;;;5015438;28;20224;-64
2023/05/23 00:18:15;;;;;;;31.90;27.00;;;17.90;99.90;;;;;;5014799;28;20194;-64
2023/05/23 00:20:41;;;;;;;35.10;30.00;;;17.90;99.90;;;;;;5015041;28;20203;-64
2023/05/23 00:23:08;;;;;;;43.63;34.30;;;17.80;99.90;;;;;;5015022;28;20171;-64
2023/05/23 00:25:35;;;;;;;39.97;32.33;;;17.70;99.90;;;;;;5015066;28;20421;-64
2023/05/23 00:28:02;;;;;;;38.00;33.70;;;17.80;99.90;;;;;;5014984;28;21069;-64
2023/05/23 00:30:31;;;;;;;40.27;33.50;;;17.80;99.90;;;;;;5014673;28;20430;-64
2023/05/23 00:32:57;;;;;;;40.20;33.67;;;17.60;99.90;;;;;;5014878;28;20426;-64
2023/05/23 00:35:23;;;;;;;42.23;33.73;;;17.70;99.90;;;;;;5013746;28;20883;-64
2023/05/23 00:37:50;;;;;;;46.27;37.10;;;17.70;99.90;;;;;;5014671;28;20488;-64
2023/05/23 00:40:19;;;;;;;42.80;34.20;;;17.60;99.90;;;;;;5014495;28;20191;-64
2023/05/23 00:42:45;;;;;;;49.73;40.90;;;17.50;99.90;;;;;;5014930;28;20786;-64
2023/05/23 00:45:11;;;;;;;48.47;36.93;;;17.40;99.90;;;;;;5014716;28;20418;-64
2023/05/23 00:47:40;;;;;;;47.40;37.77;;;17.50;99.90;;;;;;5013445;28;20914;-64
2023/05/23 00:50:08;;;;;;;51.70;39.40;;;17.50;99.90;;;;;;5014210;28;20433;-64
2023/05/23 00:52:34;;;;;;;51.33;40.87;;;17.60;99.90;;;;;;5014756;28;20500;-64
2023/05/23 00:55:00;;;;;;;56.10;44.30;;;17.50;99.90;;;;;;5014622;28;20464;-64
2023/05/23 00:57:26;;;;;;;56.57;43.10;;;17.40;99.90;;;;;;5014413;28;20485;-64
2023/05/23 00:59:52;;;;;;;55.33;43.33;;;17.40;99.90;;;;;;5014094;28;20963;-64
2023/05/23 01:02:20;;;;;;;55.93;42.77;;;17.30;99.90;;;;;;5013646;28;20460;-64
2023/05/23 01:04:47;;;;;;;53.10;43.30;;;17.50;99.90;;;;;;5014399;28;20522;-64
2023/05/23 01:07:13;;;;;;;54.70;41.40;;;17.50;99.90;;;;;;5014389;28;20867;-64
2023/05/23 01:09:38;;;;;;;54.70;42.70;;;17.50;99.90;;;;;;5013880;28;20417;-64
2023/05/23 01:12:22;;;;;;;48.40;40.53;;;17.50;99.90;;;;;;5014137;28;20190;-64
2023/05/23 01:14:58;;;;;;;53.83;41.63;;;17.50;99.90;;;;;;5012941;28;20528;-64
2023/05/23 01:17:34;;;;;;;46.83;39.70;;;17.50;99.90;;;;;;5014130;28;20480;-64
2023/05/23 01:20:11;;;;;;;51.23;40.60;;;17.50;99.90;;;;;;5013854;28;20449;-64
2023/05/23 01:23:06;;;;;;;49.93;37.87;;;17.50;99.90;;;;;;5014013;28;20422;-64
2023/05/23 01:25:45;;;;;;;52.57;41.37;;;17.60;99.90;;;;;;5013994;28;20945;-64
2023/05/23 01:28:15;;;;;;;57.37;43.30;;;17.70;99.90;;;;;;5012704;28;20455;-64
2023/05/23 01:30:43;;;;;;;58.67;43.10;;;17.70;99.90;;;;;;5013719;28;20520;-64
2023/05/23 01:33:10;;;;;;;54.07;41.43;;;17.70;99.90;;;;;;5013824;28;20884;-64
2023/05/23 01:35:37;;;;;;;55.57;43.47;;;17.80;99.90;;;;;;5013759;28;20429;-64
2023/05/23 01:38:02;;;;;;;55.73;43.47;;;17.70;99.90;;;;;;5013714;28;21037;-64
2023/05/23 01:40:28;;;;;;;60.73;45.30;;;17.70;99.90;;;;;;5013380;28;20526;-64
2023/05/23 01:42:56;;;;;;;60.90;44.80;;;17.60;99.90;;;;;;5013698;28;20175;-64
2023/05/23 01:45:25;;;;;;;66.83;47.17;;;17.60;99.90;;;;;;5013710;28;20250;-64
2023/05/23 01:47:52;;;;;;;58.93;45.60;;;17.40;99.90;;;;;;5013532;28;20426;-64
2023/05/23 01:50:18;;;;;;;55.17;45.63;;;17.50;99.90;;;;;;5013213;28;20441;-64
2023/05/23 01:52:45;;;;;;;74.37;49.03;;;17.50;99.90;;;;;;5013420;28;20799;-64
2023/05/23 01:55:14;;;;;;;67.70;48.27;;;17.40;99.90;;;;;;5013427;28;20440;-64
2023/05/23 01:57:41;;;;;;;66.43;50.17;;;17.50;99.90;;;;;;5012025;28;20464;-64
2023/05/23 02:00:09;;;;;;;65.77;48.37;;;17.50;99.90;;;;;;5013123;28;20433;-64
2023/05/23 02:02:35;;;;;;;64.10;47.33;;;17.60;99.90;;;;;;5013238;28;20426;-64
2023/05/23 02:05:00;;;;;;;60.27;47.47;;;17.60;99.90;;;;;;5013217;28;20428;-65
2023/05/23 02:07:26;;;;;;;68.30;51.40;;;17.70;99.90;;;;;;5013169;28;20175;-64
2023/05/23 02:09:52;;;;;;;64.53;49.20;;;17.60;99.90;;;;;;5012818;28;20179;-64
2023/05/23 02:12:17;;;;;;;72.63;53.77;;;17.60;99.90;;;;;;5013130;28;20182;-64
2023/05/23 02:14:43;;;;;;;73.53;52.87;;;17.40;99.90;;;;;;5012127;28;20178;-64
2023/05/23 02:17:09;;;;;;;67.80;51.10;;;17.30;99.90;;;;;;5012823;28;20229;-64
2023/05/23 02:19:35;;;;;;;69.23;53.47;;;17.30;99.90;;;;;;5012746;28;20175;-64
2023/05/23 02:22:01;;;;;;;71.10;50.60;;;17.30;99.90;;;;;;5012993;28;20182;-64
2023/05/23 02:24:26;;;;;;;68.87;51.97;;;17.40;99.90;;;;;;5012825;28;20417;-64
2023/05/23 02:26:52;;;;;;;75.80;53.67;;;17.40;99.90;;;;;;5012989;28;20175;-64
2023/05/23 02:29:18;;;;;;;71.93;53.10;;;17.40;99.90;;;;;;5012565;28;20175;-64
2023/05/23 02:31:44;;;;;;;64.67;49.10;;;17.40;99.90;;;;;;5012585;28;20540;-64
2023/05/23 02:34:09;;;;;;;68.70;50.50;;;17.50;99.90;;;;;;5012791;28;20171;-64
2023/05/23 02:36:35;;;;;;;69.63;52.17;;;17.40;99.90;;;;;;5012823;28;20186;-64
2023/05/23 02:39:04;;;;;;;67.93;54.07;;;17.40;99.90;;;;;;5012379;28;20215;-64
2023/05/23 02:41:30;;;;;;;67.53;51.07;;;17.30;99.90;;;;;;5012662;28;20532;-64
2023/05/23 02:43:57;;;;;;;69.03;52.53;;;17.20;99.90;;;;;;5012656;28;20471;-64
2023/05/23 02:46:22;;;;;;;67.93;53.20;;;17.30;99.90;;;;;;5012566;28;20171;-64
2023/05/23 02:48:48;;;;;;;69.20;50.70;;;17.40;99.90;;;;;;5012154;28;20418;-64
2023/05/23 02:51:13;;;;;;;65.73;51.30;;;17.30;99.90;;;;;;5012403;28;20284;-64
2023/05/23 02:53:39;;;;;;;74.03;53.27;;;17.20;99.90;;;;;;5012415;28;20225;-64
2023/05/23 02:56:07;;;;;;;66.73;51.40;;;17.10;99.90;;;;;;5012567;28;20175;-64
2023/05/23 02:58:34;;;;;;;70.47;51.90;;;17.20;99.90;;;;;;5012372;28;20581;-64
2023/05/23 03:01:01;;;;;;;74.13;53.93;;;17.20;99.90;;;;;;5012300;28;20460;-64
2023/05/23 03:03:27;;;;;;;59.67;48.40;;;17.20;99.90;;;;;;5012320;28;20513;-64
2023/05/23 03:05:53;;;;;;;65.47;48.90;;;17.30;99.90;;;;;;5012360;28;20418;-64
2023/05/23 03:08:19;;;;;;;64.20;50.00;;;17.30;99.90;;;;;;5012112;28;20436;-64
2023/05/23 03:10:44;;;;;;;65.93;49.77;;;17.50;99.90;;;;;;5012214;28;20879;-64
2023/05/23 03:13:10;;;;;;;73.13;51.30;;;17.50;99.90;;;;;;5012239;28;20178;-64
2023/05/23 03:15:35;;;;;;;66.93;50.83;;;17.50;99.90;;;;;;5012151;28;20182;-64
2023/05/23 03:18:01;;;;;;;66.33;51.37;;;17.60;99.90;;;;;;5012049;28;20242;-64
2023/05/23 03:20:26;;;;;;;68.50;52.03;;;17.60;99.90;;;;;;5011731;28;20198;-64
2023/05/23 03:22:52;;;;;;;73.20;55.30;;;17.60;99.90;;;;;;5012160;28;20171;-64
2023/05/23 03:25:17;;;;;;;63.87;52.60;;;17.70;99.90;;;;;;5012991;28;20221;-64
2023/05/23 03:27:43;;;;;;;68.87;53.30;;;17.80;99.90;;;;;;5016309;28;20209;-64
2023/05/23 03:30:09;;;;;;;69.90;55.50;;;17.80;99.90;;;;;;5015757;28;20282;-65
2023/05/23 03:32:35;;;;;;;64.97;53.40;;;17.60;99.90;;;;;;5016111;28;20221;-64
2023/05/23 03:35:00;;;;;;;71.03;51.93;;;17.60;99.90;;;;;;5016154;28;20849;-64
2023/05/23 03:37:26;;;;;;;63.17;52.27;;;17.60;99.90;;;;;;5016012;28;20707;-64
2023/05/23 03:39:51;;;;;;;68.13;54.17;;;17.60;99.90;;;;;;5015614;28;20233;-64
2023/05/23 03:42:17;;;;;;;68.97;52.57;;;17.60;99.90;;;;;;5015967;28;20171;-64
2023/05/23 03:44:43;;;;;;;72.27;55.40;;;17.50;99.90;;;;;;5015811;28;20183;-64
2023/05/23 03:47:08;;;;;;;70.00;55.67;;;17.40;99.90;;;;;;5015828;28;20171;-64
2023/05/23 03:49:34;;;;;;;74.77;54.47;;;17.40;99.90;;;;;;5015409;28;20171;-64
2023/05/23 03:51:59;;;;;;;71.63;53.53;;;17.30;99.90;;;;;;5015749;28;20210;-64
2023/05/23 03:54:25;;;;;;;62.03;53.07;;;17.20;99.90;;;;;;5015619;28;20163;-64
2023/05/23 03:56:51;;;;;;;65.27;55.03;;;17.30;99.90;;;;;;5015697;28;20765;-64
2023/05/23 03:59:17;;;;;;;61.80;52.63;;;17.30;99.90;;;;;;5015254;28;20297;-64
2023/05/23 04:01:42;;;;;;;61.07;52.50;;;17.30;99.90;;;;;;5014190;28;20195;-64
2023/05/23 04:04:08;;;;;;;67.53;54.37;;;17.30;99.90;;;;;;5015482;28;20468;-64
2023/05/23 04:06:33;;;;;;;69.17;54.50;;;17.30;99.90;;;;;;5015530;28;20179;-64
2023/05/23 04:09:00;;;;;;;60.60;52.20;;;17.40;99.90;;;;;;5015126;28;20640;-64
2023/05/23 04:11:25;;;;;;;65.80;52.50;;;17.30;99.90;;;;;;5015193;28;20203;-64
2023/05/23 04:13:52;;;;;;;59.07;52.63;;;17.40;99.90;;;;;;5015302;28;20472;-64
2023/05/23 04:16:17;;;;;;;68.13;53.20;;;17.40;99.90;;;;;;5015239;28;20541;-64
2023/05/23 04:18:45;;;;;;;60.97;51.27;;;17.60;99.90;;;;;;5014886;28;20457;-64
2023/05/23 04:21:11;;;;;;;57.27;48.27;;;17.50;99.90;;;;;;5013894;28;20225;-64
2023/05/23 04:23:37;;;;;;;60.77;48.57;;;17.60;99.90;;;;;;5015263;28;20459;-64
2023/05/23 04:26:04;;;;;;;60.13;51.63;;;17.70;99.90;;;;;;5015093;28;20240;-64
2023/05/23 04:28:30;;;;;;;59.93;50.50;;;17.80;99.90;;;;;;5014757;28;20261;-64
2023/05/23 04:30:55;;;;;;;59.80;48.37;;;17.80;99.90;;;;;;5014906;28;20576;-65
2023/05/23 04:33:21;;;;;;;55.07;48.70;;;17.90;99.90;;;;;;5014852;28;20179;-64
2023/05/23 04:35:48;;;;;;;51.83;44.67;;;17.90;99.90;;;;;;5015076;28;20183;-64
2023/05/23 04:38:13;;;;;;;55.27;48.50;;;17.80;99.90;;;;;;5013401;28;20294;-65
2023/05/23 04:40:39;;;;;;;64.37;49.23;;;17.70;99.90;;;;;;5014802;28;20525;-65
2023/05/23 04:43:04;;;;;;;56.63;49.57;;;17.70;99.90;;;;;;5014754;28;20170;-64
2023/05/23 04:45:30;;;;;;;59.63;47.40;;;17.60;99.90;;;;;;5014725;28;20292;-64
2023/05/23 04:47:56;;;;;;;53.90;48.33;;;17.70;99.90;;;;;;5014798;28;20554;-64
2023/05/23 04:50:22;;;;;;;53.90;48.07;;;17.70;99.90;;;;;;5014463;28;20441;-64
2023/05/23 04:52:48;;;;;;;61.03;48.93;;;17.70;99.90;;;;;;5014664;28;20171;-64
2023/05/23 04:55:13;;;;;;;54.30;48.07;;;17.80;99.90;;;;;;5014579;28;20480;-64
2023/05/23 04:57:39;;;;;;;55.63;49.67;;;17.80;99.90;;;;;;5014412;28;20206;-64
2023/05/23 05:00:11;;;;;;;55.73;49.37;;;17.70;99.90;;;;;;5014379;28;20278;-64
2023/05/23 05:02:37;;;;;;;56.37;50.43;;;17.80;99.90;;;;;;5014491;28;20178;-64
2023/05/23 05:05:03;;;;;;;54.87;48.87;;;17.70;99.90;;;;;;5014394;28;20410;-64
2023/05/23 05:07:34;;;;;;;52.90;47.20;;;17.70;99.90;;;;;;5014391;28;20471;-64
2023/05/23 05:12:39;;;;;;;56.60;50.53;;;17.70;99.90;;;;;;5052357;28;20463;-68
2023/05/23 05:15:05;;;;;;;53.07;47.77;;;17.80;99.90;;;;;;5053865;28;20459;-68
2023/05/23 05:17:35;;;;;;;58.20;52.00;;;17.80;99.90;;;;;;5053768;28;20197;-69
2023/05/23 05:20:04;;;;;;;53.90;46.20;;;17.90;99.90;;;;;;5053738;28;20404;-69
2023/05/23 05:22:30;;;;;;;54.13;48.33;;;17.90;99.90;;;;;;5033873;28;20417;-69
2023/05/23 05:24:55;;;;;;;52.97;47.40;;;17.90;99.90;;;;;;5033979;28;20429;-69
2023/05/23 05:27:21;;;;;;;55.37;49.37;;;18.00;99.90;;;;;;5034038;28;20695;-69
2023/05/23 05:29:47;;;;;;;55.30;49.30;;;17.90;99.90;;;;;;5033528;28;20178;-68
2023/05/23 05:32:12;;;;;;;52.70;47.20;;;17.90;99.90;;;;;;5033506;28;20648;-69
2023/05/23 05:34:38;;;;;;;52.00;46.30;;;17.90;99.90;;;;;;5034260;28;20174;-69
2023/05/23 05:37:03;;;;;;;52.77;47.27;;;17.90;99.90;;;;;;5034915;28;20189;-69
2023/05/23 05:39:29;;;;;;;53.43;47.53;;;17.80;99.90;;;;;;5034254;28;20198;-69
2023/05/23 05:41:55;;;;;;;58.80;48.17;;;17.80;99.90;;;;;;5034726;28;20190;-68
2023/05/23 05:44:21;;;;;;;54.13;48.07;;;17.80;99.90;;;;;;5034866;28;20174;-69
2023/05/23 05:46:47;;;;;;;56.30;50.07;;;17.80;99.90;;;;;;5034260;28;20175;-70
2023/05/23 05:49:12;;;;;;;57.97;51.57;;;17.80;99.90;;;;;;5033407;28;20425;-69
2023/05/23 05:51:38;;;;;;;62.77;51.07;;;17.70;99.90;;;;;;5034041;28;20540;-69
2023/05/23 05:54:03;;;;;;;55.17;49.37;;;17.70;99.90;;;;;;5033890;28;20179;-70
2023/05/23 05:56:29;;;;;;;57.43;50.43;;;17.80;99.90;;;;;;5033648;28;20178;-69
2023/05/23 05:58:54;;;;;;;56.47;50.33;;;17.80;99.90;;;;;;5033164;28;20237;-69
2023/05/23 06:01:20;;;;;;;54.00;48.50;;;18.00;99.90;;;;;;5033511;28;20205;-70
2023/05/23 06:03:45;;;;;;;55.97;50.20;;;18.20;99.90;;;;;;5033289;28;20221;-69
2023/05/23 06:06:11;;;;;;;52.33;46.87;;;18.20;99.90;;;;;;5033525;28;20193;-69
2023/05/23 06:08:37;;;;;;;59.73;50.40;;;18.30;99.90;;;;;;5032834;28;20175;-69
2023/05/23 06:11:02;;;;;;;52.23;46.77;;;18.20;99.90;;;;;;5033288;28;20483;-69
2023/05/23 06:13:28;;;;;;;53.47;47.73;;;18.10;99.90;;;;;;5033830;28;20651;-69
2023/05/23 06:15:53;;;;;;;54.53;48.57;;;18.30;99.90;;;;;;5033165;28;20170;-69
2023/05/23 06:18:19;;;;;;;53.63;47.93;;;18.30;99.90;;;;;;5032720;28;20686;-70
2023/05/23 06:20:44;;;;;;;56.00;46.43;;;18.20;99.90;;;;;;5033224;28;20717;-70
2023/05/23 06:23:10;;;;;;;54.43;48.20;;;18.20;99.90;;;;;;5033055;28;20173;-69
2023/05/23 06:25:35;;;;;;;50.70;45.47;;;18.20;99.90;;;;;;5027195;28;20298;-69
2023/05/23 06:28:01;;;;;;;53.90;48.53;;;18.20;99.90;;;;;;5033116;28;20730;-70
2023/05/23 06:30:28;;;;;;;49.77;44.57;;;18.50;99.90;;;;;;5032695;28;20241;-69
2023/05/23 06:32:53;;;;;;;51.07;45.97;;;18.50;99.90;;;;;;5031628;28;20176;-69
2023/05/23 06:35:19;;;;;;;50.73;45.50;;;18.60;99.90;;;;;;5041337;28;20435;-70
2023/05/23 06:37:44;;;;;;;46.50;41.87;;;18.70;99.90;;;;;;5052796;28;20228;-69
2023/05/23 06:40:13;;;;;;;50.80;45.67;;;18.60;99.90;;;;;;5052318;28;20635;-70
2023/05/23 06:42:38;;;;;;;47.50;42.70;;;18.70;99.90;;;;;;5052374;28;20517;-69
2023/05/23 06:45:04;;;;;;;46.70;42.10;;;18.90;99.90;;;;;;5052999;28;20408;-69
2023/05/23 06:47:30;;;;;;;46.97;41.97;;;18.80;99.90;;;;;;5053104;28;20198;-69
2023/05/23 06:49:55;;;;;;;45.17;40.73;;;18.70;99.90;;;;;;5053299;28;20423;-70
2023/05/23 06:52:21;;;;;;;47.23;42.47;;;18.60;99.90;;;;;;5052313;28;20193;-70
2023/05/23 06:54:46;;;;;;;46.03;41.30;;;18.70;99.90;;;;;;5052422;28;20181;-69
2023/05/23 06:57:12;;;;;;;45.97;41.37;;;18.70;99.90;;;;;;5052685;28;20181;-68
2023/05/23 06:59:37;;;;;;;44.57;40.07;;;18.70;99.90;;;;;;5051881;28;20178;-69
2023/05/23 07:02:03;;;;;;;46.63;41.93;;;18.70;99.90;;;;;;5052574;28;20200;-70
2023/05/23 07:04:28;;;;;;;43.50;39.00;;;18.60;99.90;;;;;;5052837;28;20170;-70
2023/05/23 07:06:54;;;;;;;47.80;41.77;;;18.50;99.90;;;;;;5053284;28;20170;-69
2023/05/23 07:09:19;;;;;;;47.77;42.57;;;18.50;99.90;;;;;;5053106;28;20174;-70
2023/05/23 07:11:45;;;;;;;43.63;39.17;;;18.50;99.90;;;;;;5035010;28;20613;-69
2023/05/23 07:14:10;;;;;;;42.93;38.70;;;18.30;99.90;;;;;;5052629;28;20192;-69
2023/05/23 07:16:36;;;;;;;43.40;39.17;;;18.30;99.90;;;;;;5053695;28;20188;-69
2023/05/23 07:19:02;;;;;;;48.60;43.73;;;18.10;99.90;;;;;;5035685;28;20201;-69
2023/05/23 07:21:27;;;;;;;48.00;42.60;;;17.80;99.90;;;;;;5032437;28;20277;-69
2023/05/23 07:23:53;;;;;;;44.30;39.80;;;17.60;99.90;;;;;;5032047;28;20174;-70
2023/05/23 07:26:18;;;;;;;45.37;40.77;;;17.60;99.90;;;;;;5032329;28;20212;-69
2023/05/23 07:28:44;;;;;;;45.67;41.07;;;17.60;99.90;;;;;;5033108;28;20654;-68
2023/05/23 07:31:10;;;;;;;43.80;39.33;;;17.60;99.90;;;;;;5033360;28;20277;-69
2023/05/23 07:33:36;;;;;;;42.67;38.33;;;17.50;99.90;;;;;;5031649;28;20253;-70
2023/05/23 07:36:01;;;;;;;43.57;39.10;;;17.50;99.90;;;;;;5032840;28;20854;-69
2023/05/23 07:38:27;;;;;;;41.97;37.87;;;17.40;99.90;;;;;;5032400;28;20260;-69
2023/05/23 07:40:53;;;;;;;46.57;41.57;;;17.50;99.90;;;;;;5032902;28;20194;-69
2023/05/23 07:43:18;;;;;;;46.47;41.60;;;17.40;99.90;;;;;;5032806;28;20178;-69
2023/05/23 07:45:44;;;;;;;47.73;43.07;;;17.40;99.90;;;;;;5032386;28;20645;-69
2023/05/23 07:48:11;;;;;;;47.83;42.83;;;17.50;99.90;;;;;;5032488;28;20178;-68
2023/05/23 07:50:38;;;;;;;44.90;40.10;;;17.40;99.90;;;;;;5032057;28;20194;-70
2023/05/23 07:53:05;;;;;;;48.07;43.17;;;17.50;99.90;;;;;;5032139;28;20504;-69
2023/05/23 07:55:30;;;;;;;47.00;42.17;;;17.60;99.90;;;;;;5031651;28;20432;-69
2023/05/23 07:57:56;;;;;;;47.17;42.33;;;17.80;99.90;;;;;;5031499;28;20452;-70
2023/05/23 08:00:22;;;;;;;45.70;41.00;;;17.70;99.90;;;;;;5022626;28;20202;-69
2023/05/23 08:02:47;;;;;;;44.03;39.43;;;17.70;99.90;;;;;;5031202;28;20553;-69
2023/05/23 08:05:13;;;;;;;48.17;43.40;;;17.70;99.90;;;;;;5030431;28;20178;-69
2023/05/23 08:07:38;;;;;;;47.63;42.77;;;17.70;99.90;;;;;;5013861;28;20201;-69
2023/05/23 08:10:04;;;;;;;44.63;40.20;;;17.70;99.90;;;;;;5031209;28;20228;-69
2023/05/23 08:12:30;;;;;;;44.03;39.50;;;17.80;99.90;;;;;;5034065;28;20674;-70
2023/05/23 08:14:55;;;;;;;41.67;37.57;;;17.70;99.90;;;;;;5035118;28;20425;-69
2023/05/23 08:17:21;;;;;;;43.90;39.67;;;17.60;99.90;;;;;;5035054;28;20657;-69
2023/05/23 08:19:46;;;;;;;41.20;37.10;;;17.50;99.90;;;;;;5034496;28;20178;-69
2023/05/23 08:22:12;;;;;;;40.60;36.90;;;17.40;99.90;;;;;;5035014;28;20575;-70
2023/05/23 08:24:37;;;;;;;40.10;35.57;;;17.40;99.90;;;;;;5035395;28;20627;-69
2023/05/23 08:27:03;;;;;;;37.83;34.13;;;17.40;99.90;;;;;;5035106;28;20166;-69
2023/05/23 08:29:29;;;;;;;39.00;35.17;;;17.20;99.90;;;;;;5034832;28;20170;-69
2023/05/23 08:31:54;;;;;;;35.70;32.07;;;17.30;99.90;;;;;;5034608;28;20834;-70
2023/05/23 08:34:20;;;;;;;35.10;31.70;;;17.40;99.90;;;;;;5034295;28;20189;-69
2023/05/23 08:36:45;;;;;;;35.30;31.90;;;17.50;99.90;;;;;;5034749;28;20229;-70
2023/05/23 08:39:11;;;;;;;37.50;34.00;;;17.50;99.90;;;;;;5034557;28;20670;-70
2023/05/23 08:41:38;;;;;;;36.77;33.27;;;17.50;99.90;;;;;;5034803;28;20564;-69
2023/05/23 08:44:03;;;;;;;38.37;34.67;;;17.30;99.90;;;;;;5035064;28;20754;-69
2023/05/23 08:46:32;;;;;;;36.47;32.60;;;17.40;99.90;;;;;;5035136;28;20431;-69
2023/05/23 08:48:59;;;;;;;35.80;32.20;;;17.60;99.90;;;;;;5034788;28;20174;-69
2023/05/23 08:51:26;;;;;;;31.00;28.07;;;17.50;99.90;;;;;;5035211;28;20523;-70
2023/05/23 08:53:55;;;;;;;32.33;28.30;;;17.40;99.90;;;;;;5034731;28;20476;-69
2023/05/23 08:56:23;;;;;;;30.17;27.27;;;17.50;99.90;;;;;;5034671;28;20948;-70
2023/05/23 08:58:49;;;;;;;29.63;26.80;;;17.70;99.90;;;;;;5034119;28;20583;-72
2023/05/23 09:01:19;;;;;;;31.00;27.90;;;17.80;99.90;;;;;;5034624;28;20445;-69
2023/05/23 09:03:44;;;;;;;28.57;25.90;;;17.90;99.90;;;;;;5034682;28;20914;-69
2023/05/23 09:06:10;;;;;;;29.60;26.60;;;18.10;99.90;;;;;;5049710;28;20424;-69
2023/05/23 09:08:36;;;;;;;30.97;27.80;;;18.20;99.90;;;;;;5048272;28;20175;-69
2023/05/23 09:11:04;;;;;;;32.90;29.40;;;18.30;99.90;;;;;;5032858;28;20221;-69
2023/05/23 09:13:30;;;;;;;31.90;28.70;;;18.00;99.90;;;;;;5034731;28;20421;-70
2023/05/23 09:16:03;;;;;;;29.77;26.80;;;18.00;99.90;;;;;;5034972;28;20432;-68
2023/05/23 09:18:34;;;;;;;29.77;26.83;;;18.00;99.90;;;;;;5034521;28;20653;-69
2023/05/23 09:21:01;;;;;;;29.00;26.40;;;18.10;99.90;;;;;;5034905;28;20924;-70
2023/05/23 09:23:29;;;;;;;29.40;26.80;;;18.10;99.90;;;;;;5033283;28;20819;-69
2023/05/23 09:25:55;;;;;;;28.40;25.50;;;18.10;99.90;;;;;;5040833;28;20503;-69
2023/05/23 09:28:20;;;;;;;29.00;26.30;;;18.10;99.90;;;;;;5053824;28;20463;-69
2023/05/23 09:30:46;;;;;;;26.33;24.07;;;18.30;99.90;;;;;;5053953;28;20671;-70
2023/05/23 09:33:13;;;;;;;25.90;23.60;;;18.60;99.90;;;;;;5053987;28;20177;-69
2023/05/23 09:35:43;;;;;;;25.13;22.57;;;18.70;99.90;;;;;;5053645;28;20182;-69
2023/05/23 09:38:09;;;;;;;22.13;20.03;;;18.70;99.90;;;;;;5053769;28;20483;-69
2023/05/23 09:40:35;;;;;;;23.87;21.57;;;18.50;99.90;;;;;;5053600;28;20959;-69
2023/05/23 09:43:02;;;;;;;20.30;18.53;;;18.60;99.90;;;;;;5053757;28;20904;-70
2023/05/23 09:45:30;;;;;;;20.63;18.43;;;19.10;99.90;;;;;;5053803;28;20177;-69
2023/05/23 09:47:55;;;;;;;22.10;18.43;;;19.30;99.90;;;;;;5054484;28;20447;-69
2023/05/23 09:50:22;;;;;;;16.33;14.93;;;19.20;99.90;;;;;;5053289;28;20440;-69
2023/05/23 09:52:48;;;;;;;17.27;15.77;;;19.50;99.90;;;;;;5053527;28;20184;-69
2023/05/23 09:55:14;;;;;;;16.50;15.00;;;19.70;99.90;;;;;;5053214;28;20428;-70
2023/05/23 09:57:41;;;;;;;16.37;14.97;;;20.00;99.90;;;;;;5053253;28;20637;-69
2023/05/23 10:00:13;;;;;;;18.10;16.20;;;20.20;99.90;;;;;;5053076;28;20488;-70
2023/05/23 10:03:13;;;;;;;19.77;17.67;;;20.20;99.90;;;;;;5053243;28;20511;-69
2023/05/23 10:05:45;;;;;;;16.77;15.27;;;19.90;99.90;;;;;;5037889;28;20930;-69
2023/05/23 10:08:36;;;;;;;16.60;15.13;;;19.90;99.90;;;;;;5032781;28;20930;-69
2023/05/23 10:11:17;;;;;;;17.93;16.20;;;20.00;99.90;;;;;;5024919;28;20475;-69
2023/05/23 10:13:48;;;;;;;17.57;16.00;;;20.00;99.90;;;;;;5033072;28;20405;-69
2023/05/23 10:16:20;;;;;;;16.60;15.20;;;20.20;99.90;;;;;;5033142;28;20417;-69
2023/05/23 10:19:09;;;;;;;14.03;12.73;;;20.20;99.90;;;;;;5032609;28;20502;-70
2023/05/23 10:21:48;;;;;;;15.33;14.13;;;20.10;99.90;;;;;;5032855;28;20778;-69
2023/05/23 10:24:15;;;;;;;15.50;14.10;;;20.10;99.90;;;;;;5032768;28;20409;-69
2023/05/23 10:26:42;;;;;;;14.40;13.20;;;20.20;99.90;;;;;;5033176;28;20425;-70
2023/05/23 10:29:07;;;;;;;14.03;12.70;;;20.40;99.90;;;;;;5032528;28;20416;-70
2023/05/23 10:31:35;;;;;;;13.33;12.13;;;20.50;99.90;;;;;;5032670;28;20965;-69
2023/05/23 10:34:18;;;;;;;14.97;13.53;;;21.20;99.90;;;;;;5033020;28;20177;-69
2023/05/23 10:36:55;;;;;;;14.47;13.10;;;21.00;99.90;;;;;;5032287;28;20496;-70
2023/05/23 10:39:33;;;;;;;13.23;11.83;;;21.10;99.90;;;;;;5032289;28;20466;-69
2023/05/23 10:42:03;;;;;;;14.00;12.63;;;21.30;99.90;;;;;;5032509;28;20468;-69
2023/05/23 10:44:30;;;;;;;15.70;13.10;;;21.20;99.90;;;;;;5032421;28;20474;-69
2023/05/23 10:47:03;;;;;;;14.10;12.80;;;20.90;99.90;;;;;;5032506;28;20416;-69
2023/05/23 10:49:41;;;;;;;14.73;13.23;;;21.10;99.90;;;;;;5032387;28;20493;-69
2023/05/23 10:52:09;;;;;;;14.90;12.73;;;21.30;99.90;;;;;;5032362;28;20436;-69
2023/05/23 10:54:55;;;;;;;13.40;12.30;;;21.50;99.90;;;;;;5032249;28;20956;-69
2023/05/23 10:57:26;;;;;;;13.53;12.33;;;21.50;99.90;;;;;;5032129;28;20428;-69
2023/05/23 10:59:52;;;;;;;13.17;11.97;;;21.70;99.90;;;;;;5032203;28;20998;-70
2023/05/23 11:02:25;;;;;;;14.57;13.33;;;21.80;99.90;;;;;;5032473;28;20445;-69
2023/05/23 11:05:17;;;;;;;13.20;12.10;;;22.00;99.90;;;;;;5032819;28;20966;-69
2023/05/23 11:07:42;;;;;;;14.40;13.00;;;22.20;99.90;;;;;;5032623;28;20458;-70
2023/05/23 11:10:16;;;;;;;12.40;11.30;;;22.70;99.90;;;;;;5032542;28;20827;-70
2023/05/23 11:12:43;;;;;;;13.50;12.30;;;22.90;99.90;;;;;;5032581;28;20186;-70
2023/05/23 11:15:19;;;;;;;13.23;12.13;;;22.40;99.90;;;;;;5032074;28;20778;-69
2023/05/23 11:17:52;;;;;;;13.13;11.90;;;22.20;99.90;;;;;;5032233;28;20824;-70
2023/05/23 11:20:24;;;;;;;13.43;12.23;;;22.70;99.90;;;;;;5031654;28;20409;-70
2023/05/23 11:23:01;;;;;;;12.90;11.80;;;22.70;99.90;;;;;;5031978;28;20794;-73
2023/05/23 11:25:42;;;;;;;12.33;11.30;;;22.30;99.90;;;;;;5031979;28;20497;-73
2023/05/23 11:28:08;;;;;;;13.13;11.93;;;22.00;99.90;;;;;;5031833;28;20416;-70
2023/05/23 11:30:38;;;;;;;12.20;11.37;;;22.20;99.90;;;;;;5031581;28;20531;-69
2023/05/23 11:33:13;;;;;;;13.03;11.80;;;22.20;99.90;;;;;;5014127;28;20421;-70
2023/05/23 11:35:43;;;;;;;12.67;11.30;;;22.20;99.90;;;;;;5031832;28;20471;-71
2023/05/23 11:38:10;;;;;;;13.03;11.90;;;22.40;99.90;;;;;;5031787;28;20805;-71
2023/05/23 11:40:39;;;;;;;12.20;11.30;;;22.90;99.90;;;;;;5031636;28;20437;-73
2023/05/23 11:43:10;;;;;;;11.63;10.73;;;23.40;99.90;;;;;;5031744;28;20420;-73
2023/05/23 11:45:37;;;;;;;13.23;11.90;;;23.50;99.90;;;;;;5031689;28;20420;-73
2023/05/23 11:48:07;;;;;;;13.20;12.20;;;23.60;99.90;;;;;;5035377;28;20436;-73
2023/05/23 11:50:33;;;;;;;14.60;13.23;;;23.00;99.90;;;;;;5035295;28;20444;-73
2023/05/23 11:52:59;;;;;;;13.80;12.63;;;22.80;99.90;;;;;;5035826;28;20949;-73
2023/05/23 11:55:24;;;;;;;14.57;13.47;;;22.90;99.90;;;;;;5035727;28;20420;-73
2023/05/23 11:57:50;;;;;;;13.87;12.70;;;22.70;99.90;;;;;;5035441;28;20194;-73
2023/05/23 12:00:17;;;;;;;15.10;13.90;;;22.80;99.90;;;;;;5035126;28;20166;-73
2023/05/23 12:02:44;;;;;;;13.63;12.63;;;22.60;99.90;;;;;;5035472;28;20808;-73
2023/05/23 12:05:15;;;;;;;14.53;13.40;;;22.70;99.90;;;;;;5035407;28;20770;-73
2023/05/23 12:07:42;;;;;;;12.80;11.60;;;23.30;99.90;;;;;;5035295;28;20433;-73
2023/05/23 12:10:09;;;;;;;14.43;12.90;;;23.80;99.90;;;;;;5034901;28;20527;-73
2023/05/23 12:12:35;;;;;;;13.97;12.73;;;23.20;99.90;;;;;;5035129;28;20466;-73
2023/05/23 12:15:01;;;;;;;14.87;12.80;;;23.00;99.90;;;;;;5035229;28;20993;-73
2023/05/23 12:17:26;;;;;;;12.67;11.67;;;22.80;99.90;;;;;;5034986;28;20452;-73
2023/05/23 12:19:52;;;;;;;12.73;11.73;;;22.50;99.90;;;;;;5035055;28;20170;-73
2023/05/23 12:22:24;;;;;;;13.97;12.87;;;22.50;99.90;;;;;;5035032;28;20202;-73
2023/05/23 12:24:56;;;;;;;12.37;11.37;;;22.60;99.90;;;;;;5035097;28;20421;-74
2023/05/23 12:27:29;;;;;;;11.20;10.27;;;23.50;99.90;;;;;;5034978;28;20494;-74
2023/05/23 12:30:09;;;;;;;10.47;9.67;;;26.00;99.90;;;;;;5016928;28;20421;-74
2023/05/23 12:32:45;;;;;;;10.17;9.33;;;28.60;90.10;;;;;;5034771;28;20991;-74